createdAt,value
2023-12-24T00:01:07.891Z,11.70
2023-12-24T00:03:34.807Z,11.70
2023-12-24T00:06:01.890Z,11.70
2023-12-24T00:08:32.574Z,11.70
2023-12-24T00:10:59.562Z,11.80
2023-12-24T00:13:26.910Z,11.80
2023-12-24T00:15:53.721Z,11.80
2023-12-24T00:18:20.860Z,11.70
2023-12-24T00:20:47.843Z,11.70
2023-12-24T00:23:14.722Z,11.70
2023-12-24T00:25:44.526Z,11.60
2023-12-24T00:28:11.325Z,11.60
2023-12-24T00:30:38.274Z,11.40
2023-12-24T00:33:05.404Z,11.40
2023-12-24T00:35:34.057Z,11.30
2023-12-24T00:38:00.973Z,11.30
2023-12-24T00:40:27.862Z,11.10
2023-12-24T00:42:54.868Z,11.10
2023-12-24T00:45:21.748Z,11.00
2023-12-24T00:47:48.876Z,11.00
2023-12-24T00:50:15.842Z,11.00
2023-12-24T00:52:42.639Z,11.00
2023-12-24T00:55:09.703Z,11.00
2023-12-24T00:57:39.234Z,11.00
2023-12-24T01:00:09.431Z,11.10
2023-12-24T01:02:36.380Z,11.10
2023-12-24T01:05:03.490Z,11.10
2023-12-24T01:07:30.361Z,11.10
2023-12-24T01:09:57.130Z,11.10
2023-12-24T01:12:23.971Z,11.10
2023-12-24T01:14:50.716Z,11.20
2023-12-24T01:17:17.501Z,11.20
2023-12-24T01:19:45.648Z,11.20
2023-12-24T01:22:12.387Z,11.20
2023-12-24T01:24:39.187Z,11.20
2023-12-24T01:27:06.442Z,11.20
2023-12-24T01:29:33.325Z,11.30
2023-12-24T01:32:00.298Z,11.30
2023-12-24T01:34:27.125Z,11.30
2023-12-24T01:36:54.059Z,11.30
2023-12-24T01:39:21.638Z,11.30
2023-12-24T01:41:48.608Z,11.30
2023-12-24T01:44:15.558Z,11.30
2023-12-24T01:46:42.433Z,11.30
2023-12-24T01:49:09.259Z,11.30
2023-12-24T01:51:36.083Z,11.30
2023-12-24T01:54:04.712Z,11.30
2023-12-24T01:56:32.651Z,11.30
2023-12-24T01:58:59.942Z,11.30
2023-12-24T02:01:27.606Z,11.30
2023-12-24T02:03:54.395Z,11.30
2023-12-24T02:06:21.403Z,11.30
2023-12-24T02:08:49.693Z,11.30
2023-12-24T02:11:17.613Z,11.30
2023-12-24T02:13:45.076Z,11.40
2023-12-24T02:16:11.876Z,11.40
2023-12-24T02:18:39.510Z,11.40
2023-12-24T02:21:06.597Z,11.50
2023-12-24T02:23:33.512Z,11.40
2023-12-24T02:26:04.844Z,11.40
2023-12-24T02:28:32.985Z,11.40
2023-12-24T02:31:00.518Z,11.40
2023-12-24T02:33:30.289Z,11.40
2023-12-24T02:35:57.115Z,11.50
2023-12-24T02:38:23.873Z,11.50
2023-12-24T02:40:50.791Z,11.50
2023-12-24T02:43:17.524Z,11.60
2023-12-24T02:45:46.002Z,11.60
2023-12-24T02:48:13.018Z,11.70
2023-12-24T02:50:39.955Z,11.70
2023-12-24T02:53:06.858Z,11.60
2023-12-24T02:55:33.640Z,11.60
2023-12-24T02:58:00.386Z,11.70
2023-12-24T03:00:27.185Z,11.60
2023-12-24T03:02:54.253Z,11.70
2023-12-24T03:05:21.274Z,11.70
2023-12-24T03:07:48.121Z,11.70
2023-12-24T03:10:15.036Z,11.70
2023-12-24T03:12:41.813Z,11.70
2023-12-24T03:15:09.448Z,11.70
2023-12-24T03:17:36.347Z,11.80
2023-12-24T03:20:03.545Z,11.80
2023-12-24T03:22:30.328Z,11.90
2023-12-24T03:24:57.178Z,11.90
2023-12-24T03:27:25.009Z,11.90
2023-12-24T03:29:51.865Z,12.00
2023-12-24T03:32:18.598Z,12.00
2023-12-24T03:34:45.356Z,12.00
2023-12-24T03:37:12.110Z,12.00
2023-12-24T03:39:38.900Z,12.00
2023-12-24T03:42:06.048Z,12.00
2023-12-24T03:44:32.785Z,12.00
2023-12-24T03:46:59.597Z,12.00
2023-12-24T03:49:26.555Z,12.10
2023-12-24T03:51:53.316Z,12.10
2023-12-24T03:54:23.034Z,12.00
2023-12-24T03:56:50.032Z,12.10
2023-12-24T03:59:17.972Z,12.10
2023-12-24T04:01:44.948Z,12.10
2023-12-24T04:04:12.207Z,12.10
2023-12-24T04:06:39.112Z,12.20
2023-12-24T04:09:06.052Z,12.20
2023-12-24T04:11:32.994Z,12.20
2023-12-24T04:14:00.056Z,12.20
2023-12-24T04:16:26.976Z,12.20
2023-12-24T04:18:53.764Z,12.20
2023-12-24T04:21:20.568Z,12.20
2023-12-24T04:23:47.325Z,12.20
2023-12-24T04:26:14.111Z,12.20
2023-12-24T04:28:40.965Z,12.30
2023-12-24T04:31:07.735Z,12.30
2023-12-24T04:33:34.700Z,12.30
2023-12-24T04:36:01.563Z,12.30
2023-12-24T04:38:28.600Z,12.30
2023-12-24T04:40:55.470Z,12.30
2023-12-24T04:43:22.424Z,12.40
2023-12-24T04:45:49.255Z,12.40
2023-12-24T04:48:16.129Z,12.40
2023-12-24T04:50:42.960Z,12.40
2023-12-24T04:53:09.803Z,12.50
2023-12-24T04:55:36.693Z,12.50
2023-12-24T04:58:03.638Z,12.50
2023-12-24T05:00:30.795Z,12.50
2023-12-24T05:02:57.682Z,12.50
2023-12-24T05:05:25.729Z,12.50
2023-12-24T05:07:52.788Z,12.60
2023-12-24T05:10:19.564Z,12.60
2023-12-24T05:12:47.238Z,12.60
2023-12-24T05:15:13.986Z,12.60
2023-12-24T05:17:40.873Z,12.70
2023-12-24T05:20:08.056Z,12.70
2023-12-24T05:22:34.826Z,12.70
2023-12-24T05:25:01.614Z,12.80
2023-12-24T05:27:28.392Z,12.80
2023-12-24T05:29:55.224Z,12.80
2023-12-24T05:32:22.827Z,12.80
2023-12-24T05:34:49.614Z,12.80
2023-12-24T05:37:16.447Z,12.80
2023-12-24T05:39:46.336Z,12.80
2023-12-24T05:42:13.104Z,12.90
2023-12-24T05:44:39.885Z,12.90
2023-12-24T05:47:06.812Z,12.90
2023-12-24T05:49:34.876Z,13.00
2023-12-24T05:52:01.826Z,13.00
2023-12-24T05:54:28.630Z,13.00
2023-12-24T05:56:55.407Z,13.00
2023-12-24T05:59:23.478Z,13.00
2023-12-24T06:01:50.714Z,13.00
2023-12-24T06:04:17.455Z,13.00
2023-12-24T06:06:44.225Z,13.10
2023-12-24T06:09:11.048Z,13.10
2023-12-24T06:11:38.001Z,13.10
2023-12-24T06:14:04.913Z,13.00
2023-12-24T06:16:31.824Z,13.00
2023-12-24T06:18:58.717Z,13.10
2023-12-24T06:21:25.607Z,13.10
2023-12-24T06:23:53.670Z,13.10
2023-12-24T06:26:20.570Z,13.10
2023-12-24T06:28:47.336Z,13.10
2023-12-24T06:31:21.137Z,13.10
2023-12-24T06:33:47.835Z,13.10
2023-12-24T06:36:14.604Z,13.10
2023-12-24T06:38:41.401Z,13.10
2023-12-24T06:41:08.319Z,13.10
2023-12-24T06:43:35.135Z,13.10
2023-12-24T06:46:01.933Z,13.10
2023-12-24T06:48:28.979Z,13.10
2023-12-24T06:50:55.813Z,13.10
2023-12-24T06:53:22.603Z,13.00
2023-12-24T06:55:49.404Z,13.00
2023-12-24T06:58:16.160Z,13.00
2023-12-24T07:00:43.302Z,13.00
2023-12-24T07:03:10.197Z,13.00
2023-12-24T07:05:37.111Z,13.00
2023-12-24T07:08:04.306Z,13.00
2023-12-24T07:10:31.272Z,13.00
2023-12-24T07:12:58.050Z,12.90
2023-12-24T07:15:24.819Z,13.00
2023-12-24T07:17:51.720Z,13.00
2023-12-24T07:20:18.616Z,13.00
2023-12-24T07:22:45.516Z,13.00
2023-12-24T07:25:12.336Z,13.00
2023-12-24T07:27:39.636Z,13.00
2023-12-24T07:30:07.270Z,13.00
2023-12-24T07:32:34.198Z,13.00
2023-12-24T07:35:01.069Z,13.00
2023-12-24T07:37:27.958Z,13.00
2023-12-24T07:39:54.711Z,13.00
2023-12-24T07:42:22.061Z,13.00
2023-12-24T07:44:48.833Z,13.00
2023-12-24T07:47:15.636Z,13.00
2023-12-24T07:49:42.458Z,13.00
2023-12-24T07:52:09.237Z,13.00
2023-12-24T07:54:37.640Z,13.00
2023-12-24T07:57:04.677Z,12.90
2023-12-24T07:59:31.449Z,12.90
2023-12-24T08:01:58.242Z,12.90
2023-12-24T08:04:24.995Z,13.00
2023-12-24T08:06:55.728Z,13.00
2023-12-24T08:09:23.481Z,13.00
2023-12-24T08:11:50.244Z,13.00
2023-12-24T08:14:17.076Z,12.90
2023-12-24T08:16:43.918Z,12.90
2023-12-24T08:19:10.860Z,12.90
2023-12-24T08:21:37.759Z,12.90
2023-12-24T08:24:04.827Z,12.90
2023-12-24T08:26:31.632Z,12.90
2023-12-24T08:28:58.370Z,13.00
2023-12-24T08:31:25.438Z,13.10
2023-12-24T08:33:52.266Z,13.10
2023-12-24T08:36:19.104Z,13.20
2023-12-24T08:38:45.876Z,13.20
2023-12-24T08:41:13.641Z,13.30
2023-12-24T08:43:40.468Z,13.30
2023-12-24T08:46:07.582Z,13.30
2023-12-24T08:48:34.498Z,13.40
2023-12-24T08:51:02.822Z,13.40
2023-12-24T08:53:29.810Z,13.50
2023-12-24T08:55:56.620Z,13.40
2023-12-24T08:58:23.391Z,13.50
2023-12-24T09:00:50.231Z,13.50
2023-12-24T09:03:18.221Z,13.60
2023-12-24T09:05:45.187Z,13.60
2023-12-24T09:08:13.478Z,13.60
2023-12-24T09:10:42.367Z,13.60
2023-12-24T09:13:09.247Z,13.60
2023-12-24T09:15:36.076Z,13.70
2023-12-24T09:18:03.621Z,13.70
2023-12-24T09:20:30.477Z,13.70
2023-12-24T09:22:57.306Z,13.70
2023-12-24T09:25:24.171Z,13.70
2023-12-24T09:27:50.894Z,13.70
2023-12-24T09:30:17.691Z,13.70
2023-12-24T09:32:44.948Z,13.80
2023-12-24T09:35:11.771Z,13.80
2023-12-24T09:37:38.762Z,13.80
2023-12-24T09:40:07.957Z,13.80
2023-12-24T09:42:36.905Z,13.90
2023-12-24T09:45:03.904Z,13.90
2023-12-24T09:47:30.915Z,13.90
2023-12-24T09:50:01.895Z,14.00
2023-12-24T09:52:29.631Z,14.00
2023-12-24T09:54:56.921Z,14.00
2023-12-24T09:57:23.879Z,14.00
2023-12-24T09:59:50.812Z,14.00
2023-12-24T10:02:17.684Z,14.00
2023-12-24T10:04:44.812Z,14.00
2023-12-24T10:07:11.660Z,14.10
2023-12-24T10:09:46.445Z,14.10
2023-12-24T10:12:13.348Z,14.10
2023-12-24T10:14:41.070Z,14.20
2023-12-24T10:17:08.378Z,14.20
2023-12-24T10:19:36.459Z,14.20
2023-12-24T10:22:07.237Z,14.20
2023-12-24T10:24:39.609Z,14.20
2023-12-24T10:27:11.236Z,14.30
2023-12-24T10:29:39.371Z,14.30
2023-12-24T10:32:06.630Z,14.30
2023-12-24T10:34:34.986Z,14.30
2023-12-24T10:37:23.096Z,14.40
2023-12-24T10:39:51.252Z,14.40
2023-12-24T10:42:18.254Z,14.40
2023-12-24T10:44:45.130Z,14.40
2023-12-24T10:47:12.029Z,14.40
2023-12-24T10:49:39.472Z,14.40
2023-12-24T10:52:06.712Z,14.50
2023-12-24T10:54:34.012Z,14.50
2023-12-24T10:57:08.297Z,14.50
2023-12-24T10:59:49.265Z,14.50
2023-12-24T11:02:16.630Z,14.60
2023-12-24T11:04:48.133Z,14.60
2023-12-24T11:07:33.695Z,14.60
2023-12-24T11:10:07.009Z,14.70
2023-12-24T11:12:37.727Z,14.80
2023-12-24T11:15:06.160Z,14.80
2023-12-24T11:17:43.070Z,14.90
2023-12-24T11:20:25.491Z,14.90
2023-12-24T11:23:07.916Z,14.90
2023-12-24T11:25:38.088Z,14.90
2023-12-24T11:28:05.490Z,15.00
2023-12-24T11:30:58.760Z,15.00
2023-12-24T11:33:34.720Z,15.00
2023-12-24T11:36:02.757Z,14.90
2023-12-24T11:38:36.164Z,14.90
2023-12-24T11:41:06.348Z,15.00
2023-12-24T11:43:33.235Z,14.90
2023-12-24T11:46:00.039Z,15.00
2023-12-24T11:48:45.215Z,14.90
2023-12-24T11:51:12.472Z,15.00
2023-12-24T11:53:40.624Z,15.00
2023-12-24T11:56:14.439Z,15.00
2023-12-24T11:58:45.596Z,15.00
2023-12-24T12:01:12.596Z,15.00
2023-12-24T12:03:39.495Z,15.10
2023-12-24T12:06:06.975Z,15.10
2023-12-24T12:08:34.019Z,15.10
2023-12-24T12:11:00.920Z,15.20
2023-12-24T12:13:27.912Z,15.20
2023-12-24T12:15:54.727Z,15.20
2023-12-24T12:18:21.784Z,15.20
2023-12-24T12:20:48.935Z,15.20
2023-12-24T12:23:17.788Z,15.20
2023-12-24T12:25:48.042Z,15.20
2023-12-24T12:28:14.838Z,15.20
2023-12-24T12:30:41.980Z,15.20
2023-12-24T12:33:09.320Z,15.20
2023-12-24T12:35:36.567Z,15.20
2023-12-24T12:38:03.558Z,15.20
2023-12-24T12:40:36.284Z,15.20
2023-12-24T12:43:09.573Z,15.20
2023-12-24T12:45:37.374Z,15.20
2023-12-24T12:48:04.982Z,15.20
2023-12-24T12:50:32.243Z,15.20
2023-12-24T12:52:59.513Z,15.20
2023-12-24T12:55:26.404Z,15.30
2023-12-24T12:57:53.399Z,15.20
2023-12-24T13:00:24.234Z,15.20
2023-12-24T13:02:51.701Z,15.20
2023-12-24T13:05:28.935Z,15.20
2023-12-24T13:07:56.569Z,15.10
2023-12-24T13:10:32.228Z,15.10
2023-12-24T13:13:22.257Z,15.10
2023-12-24T13:15:49.669Z,15.10
2023-12-24T13:18:34.913Z,15.10
2023-12-24T13:21:03.408Z,15.10
2023-12-24T13:23:30.323Z,15.10
2023-12-24T13:25:57.455Z,15.10
2023-12-24T13:28:27.996Z,15.10
2023-12-24T13:30:55.073Z,15.00
2023-12-24T13:33:22.424Z,15.00
2023-12-24T13:35:50.119Z,15.00
2023-12-24T13:38:21.067Z,14.90
2023-12-24T13:40:48.140Z,14.90
2023-12-24T13:43:14.989Z,14.90
2023-12-24T13:45:41.939Z,14.90
2023-12-24T13:48:09.384Z,14.90
2023-12-24T13:50:37.702Z,14.90
2023-12-24T13:53:15.377Z,14.80
2023-12-24T13:55:51.095Z,14.80
2023-12-24T13:58:18.219Z,14.80
2023-12-24T14:00:45.457Z,14.80
2023-12-24T14:03:12.584Z,14.80
2023-12-24T14:05:41.645Z,14.80
2023-12-24T14:08:08.757Z,14.90
2023-12-24T14:10:35.793Z,14.80
2023-12-24T14:13:03.826Z,14.80
2023-12-24T14:15:30.810Z,14.80
2023-12-24T14:17:59.741Z,14.80
2023-12-24T14:20:26.889Z,14.70
2023-12-24T14:22:54.030Z,14.70
2023-12-24T14:25:21.116Z,14.70
2023-12-24T14:27:47.846Z,14.70
2023-12-24T14:30:16.415Z,14.60
2023-12-24T14:32:43.459Z,14.60
2023-12-24T14:35:10.494Z,14.60
2023-12-24T14:37:37.330Z,14.60
2023-12-24T14:40:05.612Z,14.60
2023-12-24T14:42:32.501Z,14.60
2023-12-24T14:44:59.423Z,14.60
2023-12-24T14:47:30.768Z,14.50
2023-12-24T14:49:59.300Z,14.50
2023-12-24T14:52:29.267Z,14.50
2023-12-24T14:55:00.707Z,14.50
2023-12-24T14:57:28.798Z,14.50
2023-12-24T14:59:56.405Z,14.40
2023-12-24T15:02:29.213Z,14.40
2023-12-24T15:04:56.890Z,14.40
2023-12-24T15:07:26.805Z,14.30
2023-12-24T15:09:53.893Z,14.30
2023-12-24T15:12:21.244Z,14.40
2023-12-24T15:14:48.684Z,14.40
2023-12-24T15:17:17.073Z,14.30
2023-12-24T15:19:48.313Z,14.30
2023-12-24T15:22:15.942Z,14.30
2023-12-24T15:24:42.695Z,14.30
2023-12-24T15:27:09.752Z,14.20
2023-12-24T15:29:37.409Z,14.20
2023-12-24T15:32:06.028Z,14.20
2023-12-24T15:34:32.834Z,14.20
2023-12-24T15:37:00.578Z,14.20
2023-12-24T15:39:27.340Z,14.20
2023-12-24T15:41:54.241Z,14.10
2023-12-24T15:44:21.159Z,14.10
2023-12-24T15:46:47.942Z,14.10
2023-12-24T15:49:14.917Z,14.10
2023-12-24T15:51:44.714Z,14.10
2023-12-24T15:54:11.601Z,14.10
2023-12-24T15:56:40.433Z,14.10
2023-12-24T15:59:07.847Z,14.10
2023-12-24T16:01:35.664Z,14.10
2023-12-24T16:04:02.766Z,14.10
2023-12-24T16:06:29.748Z,14.00
2023-12-24T16:08:56.875Z,14.10
2023-12-24T16:11:23.807Z,14.10
2023-12-24T16:13:50.612Z,14.10
2023-12-24T16:16:17.414Z,14.10
2023-12-24T16:18:44.538Z,14.00
2023-12-24T16:21:11.463Z,14.10
2023-12-24T16:23:38.302Z,14.10
2023-12-24T16:26:05.394Z,14.00
2023-12-24T16:28:32.214Z,14.00
2023-12-24T16:30:59.284Z,14.00
2023-12-24T16:33:26.297Z,14.10
2023-12-24T16:35:53.333Z,14.00
2023-12-24T16:38:20.299Z,14.00
2023-12-24T16:40:47.089Z,14.00
2023-12-24T16:43:13.877Z,14.00
2023-12-24T16:45:40.620Z,14.00
2023-12-24T16:48:07.614Z,13.90
2023-12-24T16:50:34.673Z,13.90
2023-12-24T16:53:01.540Z,13.90
2023-12-24T16:55:28.481Z,13.90
2023-12-24T16:57:55.235Z,13.90
2023-12-24T17:00:22.390Z,13.90
2023-12-24T17:02:49.332Z,13.90
2023-12-24T17:05:16.411Z,13.90
2023-12-24T17:07:43.250Z,13.90
2023-12-24T17:10:10.364Z,13.90
2023-12-24T17:12:37.165Z,13.90
2023-12-24T17:15:04.346Z,13.90
2023-12-24T17:17:31.418Z,13.90
2023-12-24T17:19:58.596Z,13.90
2023-12-24T17:22:25.449Z,13.90
2023-12-24T17:24:52.249Z,13.90
2023-12-24T17:27:19.053Z,13.90
2023-12-24T17:29:46.293Z,13.90
2023-12-24T17:32:13.203Z,13.90
2023-12-24T17:34:41.100Z,13.90
2023-12-24T17:37:08.209Z,13.90
2023-12-24T17:39:35.456Z,13.90
2023-12-24T17:42:02.532Z,13.90
2023-12-24T17:44:29.574Z,13.90
2023-12-24T17:46:56.518Z,13.90
2023-12-24T17:49:23.453Z,13.90
2023-12-24T17:51:50.563Z,13.90
2023-12-24T17:54:17.497Z,13.90
2023-12-24T17:56:44.486Z,13.90
2023-12-24T17:59:11.537Z,13.90
2023-12-24T18:01:38.940Z,13.90
2023-12-24T18:04:06.643Z,13.90
2023-12-24T18:06:33.732Z,13.90
2023-12-24T18:09:03.694Z,13.90
2023-12-24T18:11:35.488Z,13.90
2023-12-24T18:14:02.511Z,13.90
2023-12-24T18:16:29.748Z,13.90
2023-12-24T18:18:56.942Z,13.90
2023-12-24T18:21:23.802Z,13.90
2023-12-24T18:23:50.707Z,13.90
2023-12-24T18:26:17.538Z,13.90
2023-12-24T18:28:44.301Z,13.90
2023-12-24T18:31:11.080Z,13.90
2023-12-24T18:33:38.677Z,13.90
2023-12-24T18:36:05.847Z,13.90
2023-12-24T18:38:33.068Z,13.90
2023-12-24T18:41:00.490Z,13.90
2023-12-24T18:43:27.382Z,14.00
2023-12-24T18:45:55.328Z,13.90
2023-12-24T18:48:23.348Z,13.90
2023-12-24T18:50:50.452Z,13.90
2023-12-24T18:53:17.286Z,13.90
2023-12-24T18:55:44.132Z,13.90
2023-12-24T18:58:10.916Z,14.00
2023-12-24T19:00:37.745Z,14.00
2023-12-24T19:03:04.989Z,14.00
2023-12-24T19:05:31.916Z,14.00
2023-12-24T19:07:58.680Z,14.00
2023-12-24T19:10:25.537Z,14.00
2023-12-24T19:12:52.684Z,14.00
2023-12-24T19:15:19.699Z,14.00
2023-12-24T19:17:46.750Z,14.00
2023-12-24T19:20:13.981Z,14.00
2023-12-24T19:22:41.360Z,14.00
2023-12-24T19:25:08.412Z,14.00
2023-12-24T19:27:35.158Z,14.00
2023-12-24T19:30:02.129Z,14.00
2023-12-24T19:32:29.072Z,14.00
2023-12-24T19:34:57.761Z,14.00
2023-12-24T19:37:25.406Z,14.00
2023-12-24T19:39:52.272Z,14.10
2023-12-24T19:42:19.169Z,14.00
2023-12-24T19:44:46.019Z,14.00
2023-12-24T19:47:13.006Z,14.10
2023-12-24T19:49:40.869Z,14.10
2023-12-24T19:52:11.010Z,14.10
2023-12-24T19:54:38.355Z,14.10
2023-12-24T19:57:05.258Z,14.10
2023-12-24T19:59:32.013Z,14.10
2023-12-24T20:01:58.781Z,14.00
2023-12-24T20:04:25.602Z,14.00
2023-12-24T20:06:52.573Z,14.00
2023-12-24T20:09:19.369Z,14.00
2023-12-24T20:11:46.270Z,14.00
2023-12-24T20:14:13.055Z,14.00
2023-12-24T20:16:39.912Z,14.10
2023-12-24T20:19:06.771Z,14.00
2023-12-24T20:21:33.627Z,14.00
2023-12-24T20:24:00.460Z,14.00
2023-12-24T20:26:27.371Z,14.00
2023-12-24T20:28:54.170Z,14.00
2023-12-24T20:31:21.040Z,14.00
2023-12-24T20:33:49.698Z,14.00
2023-12-24T20:36:16.861Z,14.00
2023-12-24T20:38:43.820Z,14.00
2023-12-24T20:41:10.972Z,14.00
2023-12-24T20:43:37.751Z,14.00
2023-12-24T20:46:04.908Z,14.00
2023-12-24T20:48:34.431Z,14.00
2023-12-24T20:51:03.650Z,14.00
2023-12-24T20:53:31.255Z,14.00
2023-12-24T20:55:58.123Z,14.00
2023-12-24T20:58:25.028Z,14.00
2023-12-24T21:00:52.744Z,13.90
2023-12-24T21:03:19.846Z,13.90
2023-12-24T21:05:49.188Z,14.00
2023-12-24T21:08:16.250Z,13.90
2023-12-24T21:10:43.034Z,13.90
2023-12-24T21:13:09.780Z,13.90
2023-12-24T21:15:36.637Z,13.80
2023-12-24T21:18:03.854Z,13.80
2023-12-24T21:20:30.923Z,13.80
2023-12-24T21:22:57.679Z,13.80
2023-12-24T21:25:24.527Z,13.80
2023-12-24T21:27:52.564Z,13.80
2023-12-24T21:30:19.587Z,13.80
2023-12-24T21:32:46.459Z,13.80
2023-12-24T21:35:13.320Z,13.80
2023-12-24T21:37:40.161Z,13.80
2023-12-24T21:40:07.722Z,13.80
2023-12-24T21:42:34.477Z,13.80
2023-12-24T21:45:01.273Z,13.80
2023-12-24T21:47:28.245Z,13.80
2023-12-24T21:49:55.113Z,13.80
2023-12-24T21:52:21.873Z,13.80
2023-12-24T21:54:49.152Z,13.80
2023-12-24T21:57:16.555Z,13.80
2023-12-24T21:59:43.404Z,13.90
2023-12-24T22:02:10.216Z,13.90
2023-12-24T22:04:37.339Z,13.90
2023-12-24T22:07:04.945Z,13.90
2023-12-24T22:09:31.995Z,13.90
2023-12-24T22:11:58.835Z,13.90
2023-12-24T22:14:25.655Z,13.90
2023-12-24T22:16:52.745Z,13.90
2023-12-24T22:19:19.739Z,13.90
2023-12-24T22:21:49.188Z,13.90
2023-12-24T22:24:16.404Z,13.90
2023-12-24T22:26:43.322Z,14.00
2023-12-24T22:29:10.209Z,13.90
2023-12-24T22:31:37.143Z,13.90
2023-12-24T22:34:04.705Z,13.90
2023-12-24T22:36:31.604Z,13.90
2023-12-24T22:39:00.489Z,13.90
2023-12-24T22:41:28.751Z,13.90
2023-12-24T22:43:55.954Z,13.90
2023-12-24T22:46:22.857Z,13.90
2023-12-24T22:48:49.873Z,14.00
2023-12-24T22:51:17.720Z,14.00
2023-12-24T22:53:44.721Z,13.90
2023-12-24T22:56:11.673Z,13.90
2023-12-24T22:58:38.956Z,14.00
2023-12-24T23:01:09.862Z,13.90
2023-12-24T23:03:39.586Z,13.90
2023-12-24T23:06:13.996Z,14.00
2023-12-24T23:08:41.294Z,14.00
2023-12-24T23:11:08.162Z,14.00
2023-12-24T23:13:34.994Z,13.90
2023-12-24T23:16:01.830Z,13.90
2023-12-24T23:18:28.876Z,14.00
2023-12-24T23:20:55.950Z,13.90
2023-12-24T23:23:22.870Z,13.90
2023-12-24T23:25:49.705Z,13.90
2023-12-24T23:28:16.465Z,13.80
2023-12-24T23:30:43.279Z,13.70
2023-12-24T23:33:10.238Z,13.70
2023-12-24T23:35:37.132Z,13.70
2023-12-24T23:38:04.079Z,13.70
2023-12-24T23:40:30.836Z,13.60
2023-12-24T23:42:57.593Z,13.60
2023-12-24T23:45:24.369Z,13.70
2023-12-24T23:47:51.329Z,13.60
2023-12-24T23:50:18.358Z,13.60
2023-12-24T23:52:45.174Z,13.60
2023-12-24T23:55:12.060Z,13.60
2023-12-24T23:57:38.782Z,13.60
